Time;durP1;ratioP1;P1;durP2;ratioP2;P2;SDS_P1;SDS_P2;PMS_P1;PMS_P2;Temp;Humidity;BMP_temperature;BMP_pressure;BME280_temperature;BME280_humidity;BME280_pressure;Samples;Min_cycle;Max_cycle;Signal;HPM_P1;HPM_P2
2023/08/11 00:00:32;;;;;;;5.10;2.60;;;15.30;99.90;;;;;;4198268;28;20248;-80
2023/08/11 00:02:34;;;;;;;7.00;2.73;;;15.20;99.90;;;;;;4199193;28;20742;-79
2023/08/11 00:04:37;;;;;;;4.33;2.33;;;15.30;99.90;;;;;;4198033;28;20259;-79
2023/08/11 00:06:39;;;;;;;6.87;2.97;;;15.30;99.90;;;;;;4199262;28;20251;-80
2023/08/11 00:08:41;;;;;;;5.40;2.60;;;15.30;99.90;;;;;;4200222;28;20273;-80
2023/08/11 00:10:43;;;;;;;5.67;2.87;;;15.20;99.90;;;;;;4198389;28;20210;-81
2023/08/11 00:12:45;;;;;;;4.50;2.70;;;15.20;99.90;;;;;;4197995;28;20210;-80
2023/08/11 00:14:47;;;;;;;6.13;3.17;;;15.20;99.90;;;;;;4199261;28;20472;-80
2023/08/11 00:16:49;;;;;;;5.73;3.23;;;15.10;99.90;;;;;;4197017;28;20228;-79
2023/08/11 00:18:50;;;;;;;4.30;2.77;;;15.10;99.90;;;;;;4199429;28;20641;-80
2023/08/11 00:20:54;;;;;;;4.47;2.90;;;15.00;99.90;;;;;;4200463;28;20229;-80
2023/08/11 00:22:56;;;;;;;5.20;2.83;;;14.90;99.90;;;;;;4197866;28;20197;-80
2023/08/11 00:24:58;;;;;;;3.63;2.60;;;14.90;99.90;;;;;;4198724;28;20590;-80
2023/08/11 00:27:02;;;;;;;8.10;3.00;;;14.90;99.90;;;;;;4197766;28;20231;-79
2023/08/11 00:29:04;;;;;;;5.53;2.97;;;14.80;99.90;;;;;;4198739;28;20216;-80
2023/08/11 00:31:05;;;;;;;5.30;2.80;;;14.80;99.90;;;;;;4198986;28;20680;-80
2023/08/11 00:33:07;;;;;;;3.87;2.67;;;14.80;99.90;;;;;;4196890;28;20217;-79
2023/08/11 00:35:10;;;;;;;4.47;2.67;;;14.80;99.90;;;;;;4198770;28;20662;-80
2023/08/11 00:37:14;;;;;;;9.23;2.97;;;14.70;99.90;;;;;;4198585;28;20240;-80
2023/08/11 00:39:16;;;;;;;7.70;3.00;;;14.70;99.90;;;;;;4198694;28;20663;-80
2023/08/11 00:41:18;;;;;;;6.27;2.73;;;14.70;99.90;;;;;;4199588;28;20229;-80
2023/08/11 00:43:19;;;;;;;6.57;3.13;;;14.60;99.90;;;;;;4199094;28;20720;-81
2023/08/11 00:45:21;;;;;;;7.47;2.70;;;14.60;99.90;;;;;;4198655;28;20205;-80
2023/08/11 00:47:23;;;;;;;5.37;2.73;;;14.60;99.90;;;;;;4197987;28;20315;-80
2023/08/11 00:49:25;;;;;;;5.60;2.80;;;14.60;99.90;;;;;;4198165;28;20212;-80
2023/08/11 00:51:28;;;;;;;11.43;2.80;;;14.60;99.90;;;;;;4199245;28;20406;-80
2023/08/11 00:53:31;;;;;;;3.93;2.40;;;14.50;99.90;;;;;;4200363;28;20684;-78
2023/08/11 00:55:33;;;;;;;9.63;2.67;;;14.50;99.90;;;;;;4200007;28;20217;-79
2023/08/11 00:57:36;;;;;;;5.37;2.80;;;14.50;99.90;;;;;;4199311;28;20232;-80
2023/08/11 00:59:37;;;;;;;4.77;2.60;;;14.40;99.90;;;;;;4200527;28;20345;-79
2023/08/11 01:01:40;;;;;;;4.30;2.60;;;14.40;99.90;;;;;;4198874;28;20239;-79
2023/08/11 01:03:43;;;;;;;4.13;2.47;;;14.40;99.90;;;;;;4198097;28;20226;-79
2023/08/11 01:05:54;;;;;;;3.57;2.67;;;14.40;99.90;;;;;;4198355;28;20208;-79
2023/08/11 01:08:05;;;;;;;4.83;2.77;;;14.40;99.90;;;;;;4198767;28;20769;-79
2023/08/11 01:10:17;;;;;;;6.40;2.70;;;14.30;99.90;;;;;;4196268;28;20586;-79
2023/08/11 01:12:27;;;;;;;7.23;2.90;;;14.40;99.90;;;;;;4197544;28;20310;-79
2023/08/11 01:14:35;;;;;;;5.77;2.50;;;14.40;99.90;;;;;;4199046;28;20208;-79
2023/08/11 01:16:36;;;;;;;3.77;2.50;;;14.40;99.90;;;;;;4199355;28;20680;-79
2023/08/11 01:18:38;;;;;;;5.13;2.60;;;14.40;99.90;;;;;;4200294;28;20200;-80
2023/08/11 01:20:41;;;;;;;7.50;2.47;;;14.30;99.90;;;;;;4196465;28;20691;-80
2023/08/11 01:22:46;;;;;;;4.70;2.70;;;14.30;99.90;;;;;;4198421;28;20724;-81
2023/08/11 01:24:51;;;;;;;3.90;2.50;;;14.30;99.90;;;;;;4198497;28;20211;-79
2023/08/11 01:26:53;;;;;;;3.47;2.60;;;14.20;99.90;;;;;;4197410;28;20233;-80
2023/08/11 01:28:55;;;;;;;6.10;3.00;;;14.10;99.90;;;;;;4200714;28;20273;-80
2023/08/11 01:30:57;;;;;;;4.27;2.60;;;14.10;99.90;;;;;;4199008;28;20233;-79
2023/08/11 01:32:59;;;;;;;5.80;2.57;;;14.10;99.90;;;;;;4198781;28;20229;-79
2023/08/11 01:35:01;;;;;;;5.53;2.63;;;14.00;99.90;;;;;;4197261;28;20211;-79
2023/08/11 01:37:03;;;;;;;5.50;2.67;;;14.10;99.90;;;;;;4198582;28;20724;-79
2023/08/11 01:39:05;;;;;;;5.77;3.03;;;14.00;99.90;;;;;;4198474;28;20219;-80
2023/08/11 01:41:09;;;;;;;6.17;3.13;;;14.00;99.90;;;;;;4197905;28;20262;-79
2023/08/11 01:43:13;;;;;;;6.40;2.47;;;14.10;99.90;;;;;;4198529;28;20580;-81
2023/08/11 01:45:17;;;;;;;3.57;2.57;;;14.00;99.90;;;;;;4197963;28;20306;-79
2023/08/11 01:47:19;;;;;;;6.93;3.27;;;14.00;99.90;;;;;;4197019;28;20290;-79
2023/08/11 01:49:22;;;;;;;6.93;2.90;;;13.90;99.90;;;;;;4196580;28;20852;-80
2023/08/11 01:51:25;;;;;;;8.30;3.13;;;13.90;99.90;;;;;;4197339;28;20226;-80
2023/08/11 01:53:27;;;;;;;5.07;2.67;;;13.90;99.90;;;;;;4197018;28;20327;-80
2023/08/11 01:55:29;;;;;;;4.13;2.60;;;13.90;99.90;;;;;;4197446;28;20934;-80
2023/08/11 01:57:35;;;;;;;6.90;2.80;;;13.80;99.90;;;;;;4195081;28;20270;-81
2023/08/11 01:59:37;;;;;;;4.00;2.73;;;13.80;99.90;;;;;;4195600;28;20199;-79
2023/08/11 02:01:38;;;;;;;6.33;2.77;;;13.80;99.90;;;;;;4197305;28;20324;-80
2023/08/11 02:03:40;;;;;;;5.43;2.87;;;13.70;99.90;;;;;;4195838;28;20208;-79
2023/08/11 02:05:42;;;;;;;6.50;3.00;;;13.70;99.90;;;;;;4196194;28;20574;-80
2023/08/11 02:07:45;;;;;;;8.27;3.10;;;13.70;99.90;;;;;;4196964;28;20275;-79
2023/08/11 02:09:49;;;;;;;5.50;2.87;;;13.60;99.90;;;;;;4196943;28;20500;-79
2023/08/11 02:11:50;;;;;;;5.83;3.00;;;13.60;99.90;;;;;;4196209;28;20210;-79
2023/08/11 02:13:54;;;;;;;3.93;2.60;;;13.60;99.90;;;;;;4198158;28;20309;-79
2023/08/11 02:15:56;;;;;;;6.23;2.90;;;13.50;99.90;;;;;;4197638;28;20567;-79
2023/08/11 02:17:57;;;;;;;8.10;2.80;;;13.50;99.90;;;;;;4197822;28;20245;-79
2023/08/11 02:20:09;;;;;;;4.77;2.87;;;13.50;99.90;;;;;;4195953;28;20617;-79
2023/08/11 02:22:11;;;;;;;5.03;2.70;;;13.50;99.90;;;;;;4196990;28;20235;-79
2023/08/11 02:24:13;;;;;;;9.20;3.10;;;13.40;99.90;;;;;;4197312;28;20301;-79
2023/08/11 02:26:15;;;;;;;9.57;2.83;;;13.40;99.90;;;;;;4196041;28;20280;-80
2023/08/11 02:28:17;;;;;;;3.93;2.40;;;13.30;99.90;;;;;;4195995;28;20201;-79
2023/08/11 02:30:21;;;;;;;6.60;2.70;;;13.40;99.90;;;;;;4197763;28;20309;-79
2023/08/11 02:32:24;;;;;;;6.60;2.83;;;13.30;99.90;;;;;;4197171;28;20297;-79
2023/08/11 02:34:25;;;;;;;4.87;2.60;;;13.20;99.90;;;;;;4195217;28;20716;-80
2023/08/11 02:36:27;;;;;;;4.67;2.73;;;13.20;99.90;;;;;;4190876;28;20318;-80
2023/08/11 02:38:29;;;;;;;7.03;2.80;;;13.20;99.90;;;;;;4191342;28;20278;-80
2023/08/11 02:40:31;;;;;;;6.37;3.23;;;13.20;99.90;;;;;;4192749;28;20211;-79
2023/08/11 02:42:32;;;;;;;6.83;3.60;;;13.20;99.90;;;;;;4189079;28;20324;-79
2023/08/11 02:44:33;;;;;;;5.60;3.00;;;13.10;99.90;;;;;;4187541;28;20309;-79
2023/08/11 02:46:37;;;;;;;5.83;3.10;;;13.10;99.90;;;;;;4187520;28;20265;-80
2023/08/11 02:48:39;;;;;;;7.33;3.23;;;13.10;99.90;;;;;;4187464;28;20225;-79
2023/08/11 02:50:41;;;;;;;6.97;2.93;;;13.10;99.90;;;;;;4190299;28;20775;-79
2023/08/11 02:52:43;;;;;;;5.13;2.93;;;13.00;99.90;;;;;;4194010;28;20676;-79
2023/08/11 02:54:45;;;;;;;5.73;3.03;;;13.00;99.90;;;;;;4193568;28;20293;-79
2023/08/11 02:56:48;;;;;;;3.97;2.77;;;13.00;99.90;;;;;;4194685;28;20609;-79
2023/08/11 02:58:50;;;;;;;6.67;3.20;;;13.00;99.90;;;;;;4198542;28;20284;-79
2023/08/11 03:00:52;;;;;;;6.43;2.70;;;13.00;99.90;;;;;;4199439;28;20202;-79
2023/08/11 03:02:56;;;;;;;4.37;2.80;;;12.90;99.90;;;;;;4201107;28;20210;-79
2023/08/11 03:04:58;;;;;;;5.87;2.70;;;12.90;99.90;;;;;;4200177;28;20215;-79
2023/08/11 03:07:00;;;;;;;4.90;2.53;;;12.90;99.90;;;;;;4202296;28;20289;-79
2023/08/11 03:09:02;;;;;;;4.57;2.90;;;12.90;99.90;;;;;;4202602;28;20223;-79
2023/08/11 03:11:04;;;;;;;7.53;2.60;;;12.80;99.90;;;;;;4207779;28;20215;-79
2023/08/11 03:13:06;;;;;;;6.43;2.60;;;12.80;99.90;;;;;;4210425;28;20221;-79
2023/08/11 03:15:08;;;;;;;5.03;2.70;;;12.80;99.90;;;;;;4212192;28;20249;-80
2023/08/11 03:17:13;;;;;;;6.00;2.47;;;12.70;99.90;;;;;;4212642;28;20253;-78
2023/08/11 03:19:16;;;;;;;5.37;2.90;;;12.70;99.90;;;;;;4211238;28;20229;-79
2023/08/11 03:21:17;;;;;;;3.87;2.60;;;12.60;99.90;;;;;;4209122;28;20242;-79
2023/08/11 03:23:19;;;;;;;5.83;2.80;;;12.60;99.90;;;;;;4207070;28;20215;-79
2023/08/11 03:25:21;;;;;;;8.97;2.60;;;12.60;99.90;;;;;;4207889;28;20225;-79
2023/08/11 03:27:22;;;;;;;5.70;2.43;;;12.60;99.90;;;;;;4207807;28;20570;-79
2023/08/11 03:29:24;;;;;;;5.43;2.50;;;12.60;99.90;;;;;;4211575;28;20508;-78
2023/08/11 03:31:26;;;;;;;4.83;2.43;;;12.60;99.90;;;;;;4210529;28;20208;-78
2023/08/11 03:33:28;;;;;;;4.83;2.60;;;12.60;99.90;;;;;;4209826;28;20717;-79
2023/08/11 03:35:33;;;;;;;6.67;2.70;;;12.50;99.90;;;;;;4210172;28;20271;-79
2023/08/11 03:37:35;;;;;;;4.33;2.50;;;12.50;99.90;;;;;;4212078;28;20264;-79
2023/08/11 03:39:37;;;;;;;5.63;2.70;;;12.50;99.90;;;;;;4208617;28;20244;-79
2023/08/11 03:41:39;;;;;;;6.53;2.60;;;12.50;99.90;;;;;;4209251;28;20290;-79
2023/08/11 03:43:41;;;;;;;6.47;2.97;;;12.50;99.90;;;;;;4207209;28;20672;-80
2023/08/11 03:45:43;;;;;;;6.47;2.70;;;12.50;99.90;;;;;;4197573;28;20218;-80
2023/08/11 03:47:45;;;;;;;3.53;2.50;;;12.50;99.90;;;;;;4198299;28;20256;-80
2023/08/11 03:49:46;;;;;;;7.17;3.23;;;12.40;99.90;;;;;;4197599;28;20285;-80
2023/08/11 03:51:49;;;;;;;5.73;3.30;;;12.50;99.90;;;;;;4197089;28;20230;-80
2023/08/11 03:53:51;;;;;;;6.13;3.20;;;12.40;99.90;;;;;;4197842;28;20210;-79
2023/08/11 03:55:52;;;;;;;7.30;3.07;;;12.50;99.90;;;;;;4198203;28;20206;-79
2023/08/11 03:57:54;;;;;;;6.03;3.30;;;12.50;99.90;;;;;;4197289;28;20279;-79
2023/08/11 03:59:56;;;;;;;7.33;3.37;;;12.50;99.90;;;;;;4196730;28;20213;-80
2023/08/11 04:01:58;;;;;;;6.03;3.30;;;12.50;99.90;;;;;;4198416;28;20647;-79
2023/08/11 04:04:00;;;;;;;6.03;3.50;;;12.50;99.90;;;;;;4198725;28;20245;-79
2023/08/11 04:06:02;;;;;;;7.00;3.40;;;12.50;99.90;;;;;;4199127;28;20728;-79
2023/08/11 04:08:06;;;;;;;6.63;3.27;;;12.50;99.90;;;;;;4198582;28;20226;-78
2023/08/11 04:10:10;;;;;;;7.03;3.00;;;12.50;99.90;;;;;;4196861;28;20238;-78
2023/08/11 04:12:12;;;;;;;5.33;2.90;;;12.40;99.90;;;;;;4197659;28;20259;-79
2023/08/11 04:14:14;;;;;;;7.00;3.40;;;12.40;99.90;;;;;;4198458;28;20220;-80
2023/08/11 04:16:16;;;;;;;5.80;2.90;;;12.40;99.90;;;;;;4198235;28;20743;-80
2023/08/11 04:18:18;;;;;;;5.93;2.97;;;12.30;99.90;;;;;;4198470;28;20234;-79
2023/08/11 04:20:20;;;;;;;5.37;2.70;;;12.30;99.90;;;;;;4198341;28;20256;-79
2023/08/11 04:22:21;;;;;;;4.03;2.47;;;12.30;99.90;;;;;;4198758;28;20269;-78
2023/08/11 04:24:25;;;;;;;5.93;2.60;;;12.30;99.90;;;;;;4199372;28;20612;-78
2023/08/11 04:26:27;;;;;;;5.90;2.77;;;12.30;99.90;;;;;;4198357;28;20198;-80
2023/08/11 04:28:28;;;;;;;4.63;2.90;;;12.30;99.90;;;;;;4198422;28;20269;-80
2023/08/11 04:30:30;;;;;;;7.57;3.40;;;12.30;99.90;;;;;;4197588;28;20311;-79
2023/08/11 04:32:32;;;;;;;6.80;3.07;;;12.30;99.90;;;;;;4198591;28;20317;-79
2023/08/11 04:34:34;;;;;;;4.83;2.93;;;12.20;99.90;;;;;;4199419;28;20301;-79
2023/08/11 04:36:36;;;;;;;4.90;2.57;;;12.20;99.90;;;;;;4198805;28;20320;-77
2023/08/11 04:38:38;;;;;;;3.73;2.63;;;12.20;99.90;;;;;;4199595;28;20309;-80
2023/08/11 04:40:42;;;;;;;5.17;2.73;;;12.20;99.90;;;;;;4200416;28;20579;-79
2023/08/11 04:42:43;;;;;;;7.30;3.00;;;12.20;99.90;;;;;;4201074;28;20237;-79
2023/08/11 04:44:45;;;;;;;6.17;3.20;;;12.20;99.90;;;;;;4200323;28;20204;-79
2023/08/11 04:46:47;;;;;;;8.37;3.00;;;12.20;99.90;;;;;;4198983;28;20254;-79
2023/08/11 04:48:49;;;;;;;6.97;3.13;;;12.30;99.90;;;;;;4215392;22;20328;-75
2023/08/11 04:50:51;;;;;;;4.43;2.83;;;12.30;99.90;;;;;;4201783;28;20622;-73
2023/08/11 04:52:53;;;;;;;5.10;2.70;;;12.30;99.90;;;;;;4205323;28;20285;-74
2023/08/11 04:54:55;;;;;;;6.20;2.60;;;12.30;99.90;;;;;;4202290;28;20249;-73
2023/08/11 04:56:59;;;;;;;5.90;2.80;;;12.30;99.90;;;;;;4204805;28;20267;-73
2023/08/11 04:59:01;;;;;;;6.20;3.07;;;12.30;99.90;;;;;;4205182;28;20229;-75
2023/08/11 05:01:04;;;;;;;5.50;3.00;;;12.30;99.90;;;;;;4206317;28;20594;-73
2023/08/11 05:03:06;;;;;;;7.50;3.23;;;12.30;99.90;;;;;;4201882;28;20222;-75
2023/08/11 05:05:08;;;;;;;7.63;2.83;;;12.30;99.90;;;;;;4202076;28;20209;-73
2023/08/11 05:07:10;;;;;;;7.43;3.03;;;12.30;99.90;;;;;;4202654;28;20210;-73
2023/08/11 05:09:12;;;;;;;8.90;3.70;;;12.30;99.90;;;;;;4202986;28;20359;-73
2023/08/11 05:11:14;;;;;;;10.33;3.40;;;12.40;99.90;;;;;;4202083;28;20213;-73
2023/08/11 05:13:17;;;;;;;5.00;2.93;;;12.40;99.90;;;;;;4201960;28;20220;-73
2023/08/11 05:15:19;;;;;;;6.57;3.37;;;12.40;99.90;;;;;;4201262;28;20197;-73
2023/08/11 05:17:21;;;;;;;5.27;2.90;;;12.40;99.90;;;;;;4201061;28;20300;-73
2023/08/11 05:19:25;;;;;;;6.67;3.00;;;12.40;99.90;;;;;;4201285;28;20237;-73
2023/08/11 05:21:27;;;;;;;6.50;2.90;;;12.40;99.90;;;;;;4200454;28;20685;-73
2023/08/11 05:23:29;;;;;;;6.37;3.00;;;12.40;99.90;;;;;;4201322;28;20313;-73
2023/08/11 05:25:31;;;;;;;5.70;3.17;;;12.40;99.90;;;;;;4201761;28;20216;-73
2023/08/11 05:27:31;;;;;;;8.20;4.17;;;12.50;99.90;;;;;;4204235;28;20240;-73
2023/08/11 05:29:35;;;;;;;8.27;4.10;;;12.50;99.90;;;;;;4203073;28;20194;-73
2023/08/11 05:31:37;;;;;;;11.30;4.03;;;12.60;99.90;;;;;;4200238;28;20611;-74
2023/08/11 05:33:39;;;;;;;7.67;3.70;;;12.70;99.90;;;;;;4204065;28;20214;-73
2023/08/11 05:35:41;;;;;;;6.73;3.83;;;12.70;99.90;;;;;;4203744;28;20296;-72
2023/08/11 05:37:43;;;;;;;10.67;4.00;;;12.80;99.90;;;;;;4203124;28;20229;-74
2023/08/11 05:39:46;;;;;;;8.27;4.43;;;12.90;99.90;;;;;;4201883;28;20695;-73
2023/08/11 05:41:47;;;;;;;8.73;4.40;;;12.90;99.90;;;;;;4202366;28;20487;-74
2023/08/11 05:43:49;;;;;;;9.13;4.40;;;12.90;99.90;;;;;;4201281;28;20312;-72
2023/08/11 05:45:53;;;;;;;10.80;4.50;;;12.90;99.90;;;;;;4200218;28;20197;-72
2023/08/11 05:47:55;;;;;;;16.33;5.07;;;12.90;99.90;;;;;;4200316;28;20703;-72
2023/08/11 05:49:57;;;;;;;14.37;5.13;;;13.00;99.90;;;;;;4200059;28;20229;-74
2023/08/11 05:51:58;;;;;;;11.10;5.07;;;13.00;99.90;;;;;;4200114;28;20208;-74
2023/08/11 05:54:00;;;;;;;12.63;5.17;;;13.00;99.90;;;;;;4199273;28;20893;-74
2023/08/11 05:56:02;;;;;;;8.50;4.63;;;13.10;99.90;;;;;;4200967;28;20252;-73
2023/08/11 05:58:04;;;;;;;12.43;5.83;;;13.10;99.90;;;;;;4198029;28;20246;-73
2023/08/11 06:00:08;;;;;;;12.97;5.13;;;13.10;99.90;;;;;;4201326;28;20326;-73
2023/08/11 06:02:11;;;;;;;10.27;5.07;;;13.10;99.90;;;;;;4201806;28;20211;-74
2023/08/11 06:04:13;;;;;;;11.43;5.23;;;13.20;99.90;;;;;;4199992;28;20255;-74
2023/08/11 06:06:15;;;;;;;9.33;4.70;;;13.20;99.90;;;;;;4204378;28;20691;-74
2023/08/11 06:08:17;;;;;;;8.43;4.80;;;13.20;99.90;;;;;;4201049;28;20257;-74
2023/08/11 06:10:18;;;;;;;11.10;5.00;;;13.30;99.90;;;;;;4202570;28;20302;-75
2023/08/11 06:12:20;;;;;;;14.63;5.50;;;13.30;99.90;;;;;;4200974;28;20305;-75
2023/08/11 06:14:22;;;;;;;12.47;5.60;;;13.30;99.90;;;;;;4201180;28;20693;-74
2023/08/11 06:16:24;;;;;;;10.10;4.97;;;13.40;99.90;;;;;;4200459;28;20297;-74
2023/08/11 06:18:28;;;;;;;11.17;5.30;;;13.50;99.90;;;;;;4200932;28;20263;-73
2023/08/11 06:20:30;;;;;;;10.80;4.80;;;13.50;99.90;;;;;;4202153;28;20244;-73
2023/08/11 06:22:35;;;;;;;13.80;4.73;;;13.60;99.90;;;;;;4200424;28;20265;-74
2023/08/11 06:24:37;;;;;;;12.07;4.80;;;13.60;99.90;;;;;;4203322;28;20272;-74
2023/08/11 06:26:39;;;;;;;8.30;4.70;;;13.60;99.90;;;;;;4188845;28;20814;-74
2023/08/11 06:28:41;;;;;;;10.90;4.60;;;13.70;99.90;;;;;;4202993;28;20258;-74
2023/08/11 06:30:43;;;;;;;9.93;4.37;;;13.70;99.90;;;;;;4202515;28;20213;-74
2023/08/11 06:32:45;;;;;;;11.57;4.83;;;13.80;99.90;;;;;;4203141;28;20300;-74
2023/08/11 06:34:48;;;;;;;10.83;4.80;;;13.80;99.90;;;;;;4205400;28;20214;-74
2023/08/11 06:36:49;;;;;;;12.07;4.77;;;13.90;99.90;;;;;;4202415;28;20238;-73
2023/08/11 06:38:51;;;;;;;10.57;4.20;;;13.90;99.90;;;;;;4204839;28;20234;-73
2023/08/11 06:40:55;;;;;;;10.83;4.97;;;14.00;99.90;;;;;;4204863;28;20647;-73
2023/08/11 06:42:57;;;;;;;9.07;4.20;;;14.10;99.90;;;;;;4205343;28;20703;-73
2023/08/11 06:44:59;;;;;;;12.43;4.63;;;14.10;99.90;;;;;;4204254;28;20576;-73
2023/08/11 06:47:00;;;;;;;9.60;3.93;;;14.20;99.90;;;;;;4205237;28;20205;-74
2023/08/11 06:49:02;;;;;;;11.60;4.27;;;14.30;99.90;;;;;;4205045;28;20789;-74
2023/08/11 06:51:05;;;;;;;9.60;4.20;;;14.30;99.90;;;;;;4203940;28;20221;-74
2023/08/11 06:53:08;;;;;;;11.17;4.63;;;14.40;99.90;;;;;;4205721;28;20214;-74
2023/08/11 06:55:10;;;;;;;9.47;4.30;;;14.50;99.90;;;;;;4204283;28;20216;-73
2023/08/11 06:57:12;;;;;;;9.00;3.70;;;14.60;99.90;;;;;;4205336;28;20223;-74
2023/08/11 06:59:14;;;;;;;11.07;4.40;;;14.60;99.90;;;;;;4205854;28;20229;-73
2023/08/11 07:01:18;;;;;;;12.10;3.90;;;14.70;99.90;;;;;;4203965;28;20210;-72
2023/08/11 07:03:19;;;;;;;8.43;3.90;;;14.80;99.90;;;;;;4206357;28;20218;-73
2023/08/11 07:05:20;;;;;;;12.87;3.70;;;14.80;99.90;;;;;;4205287;28;20311;-72
2023/08/11 07:07:24;;;;;;;8.93;3.60;;;14.90;99.90;;;;;;4203566;28;20206;-73
2023/08/11 07:09:26;;;;;;;9.43;4.10;;;14.90;99.90;;;;;;4206136;28;20216;-73
2023/08/11 07:11:27;;;;;;;9.73;3.90;;;15.00;99.90;;;;;;4205590;28;20255;-73
2023/08/11 07:13:29;;;;;;;6.97;3.50;;;15.10;99.90;;;;;;4205629;28;20598;-73
2023/08/11 07:15:31;;;;;;;8.80;4.03;;;15.10;99.90;;;;;;4205677;28;20203;-74
2023/08/11 07:17:33;;;;;;;6.60;3.50;;;15.20;99.90;;;;;;4204197;28;20217;-74
2023/08/11 07:19:35;;;;;;;8.23;3.57;;;15.30;99.90;;;;;;4206464;28;20236;-74
2023/08/11 07:21:37;;;;;;;12.30;4.03;;;15.40;99.90;;;;;;4204013;28;20211;-74
2023/08/11 07:23:41;;;;;;;6.63;3.67;;;15.40;99.90;;;;;;4204717;28;20234;-75
2023/08/11 07:25:43;;;;;;;9.43;3.83;;;15.50;99.90;;;;;;4200430;28;20206;-73
2023/08/11 07:27:44;;;;;;;10.13;3.43;;;15.60;99.90;;;;;;4205526;28;20315;-73
2023/08/11 07:29:46;;;;;;;6.73;3.20;;;15.70;99.90;;;;;;4203628;28;20737;-73
2023/08/11 07:31:48;;;;;;;8.23;3.63;;;15.70;99.90;;;;;;4206398;28;20742;-74
2023/08/11 07:33:50;;;;;;;9.00;4.17;;;15.80;99.90;;;;;;4203637;28;20233;-73
2023/08/11 07:35:52;;;;;;;4.60;2.80;;;15.90;99.90;;;;;;4204280;28;20300;-74
2023/08/11 07:37:54;;;;;;;9.07;2.70;;;16.00;99.90;;;;;;4203233;28;20253;-74
2023/08/11 07:39:56;;;;;;;6.47;3.00;;;16.00;99.90;;;;;;4205715;28;20253;-73
2023/08/11 07:42:02;;;;;;;5.80;2.67;;;16.10;99.90;;;;;;4205841;28;20311;-74
2023/08/11 07:44:04;;;;;;;5.53;2.90;;;16.20;99.90;;;;;;4203895;28;20295;-74
2023/08/11 07:46:06;;;;;;;10.53;3.10;;;16.30;99.90;;;;;;4205596;28;20201;-74
2023/08/11 07:48:08;;;;;;;9.30;3.00;;;16.40;99.90;;;;;;4204352;28;20750;-74
2023/08/11 07:50:11;;;;;;;10.67;2.80;;;16.50;99.90;;;;;;4204641;28;20273;-74
2023/08/11 07:52:13;;;;;;;8.07;2.73;;;16.60;99.90;;;;;;4204976;28;20279;-74
2023/08/11 07:54:16;;;;;;;9.87;2.63;;;16.80;99.90;;;;;;4202057;28;20212;-74
2023/08/11 07:56:19;;;;;;;5.20;2.40;;;16.80;99.90;;;;;;4205708;28;20440;-74
2023/08/11 07:58:21;;;;;;;5.37;2.27;;;17.00;99.90;;;;;;4204800;28;20790;-74
2023/08/11 08:00:25;;;;;;;5.90;2.20;;;17.00;99.90;;;;;;4206112;28;20205;-74
2023/08/11 08:02:30;;;;;;;5.97;2.30;;;17.10;99.90;;;;;;4202881;28;20235;-74
2023/08/11 08:04:31;;;;;;;8.30;2.57;;;17.10;99.90;;;;;;4206506;28;20240;-73
2023/08/11 08:06:35;;;;;;;8.83;2.33;;;17.20;99.90;;;;;;4204571;28;20212;-73
2023/08/11 08:08:37;;;;;;;3.77;2.00;;;17.30;99.90;;;;;;4204652;28;20275;-73
2023/08/11 08:10:39;;;;;;;5.60;2.60;;;17.50;99.90;;;;;;4206253;28;20219;-73
2023/08/11 08:12:45;;;;;;;2.87;1.70;;;17.40;99.90;;;;;;4205480;28;20284;-73
2023/08/11 08:14:47;;;;;;;4.10;2.10;;;17.50;99.90;;;;;;4202039;28;20194;-74
2023/08/11 08:16:49;;;;;;;5.67;2.10;;;17.60;99.90;;;;;;4208171;28;20217;-74
2023/08/11 08:18:51;;;;;;;8.60;2.10;;;17.60;99.90;;;;;;4207853;28;20292;-74
2023/08/11 08:20:53;;;;;;;6.70;1.87;;;17.70;99.90;;;;;;4210749;28;20215;-74
2023/08/11 08:22:55;;;;;;;7.30;2.07;;;17.80;99.90;;;;;;4207562;28;20208;-74
2023/08/11 08:24:57;;;;;;;8.70;2.40;;;17.90;99.90;;;;;;4205053;28;20907;-73
2023/08/11 08:26:59;;;;;;;3.20;1.80;;;17.90;99.90;;;;;;4204677;28;20227;-73
2023/08/11 08:29:03;;;;;;;5.77;1.83;;;18.00;99.90;;;;;;4203476;28;20236;-73
2023/08/11 08:31:06;;;;;;;8.70;1.90;;;18.10;99.90;;;;;;4203636;28;20641;-74
2023/08/11 08:33:08;;;;;;;6.83;2.00;;;18.20;99.90;;;;;;4201811;28;20203;-73
2023/08/11 08:35:11;;;;;;;4.03;1.60;;;18.20;99.90;;;;;;4202858;28;20668;-74
2023/08/11 08:37:14;;;;;;;3.43;1.90;;;18.30;99.90;;;;;;4205368;28;20212;-73
2023/08/11 08:39:16;;;;;;;4.17;1.80;;;18.50;99.90;;;;;;4202466;28;20278;-75
2023/08/11 08:41:23;;;;;;;6.80;1.60;;;18.50;99.90;;;;;;4202596;28;20281;-74
2023/08/11 08:43:25;;;;;;;4.27;1.90;;;18.60;99.90;;;;;;4203574;28;20697;-74
2023/08/11 08:45:29;;;;;;;3.13;1.13;;;18.70;99.90;;;;;;4201656;28;20237;-74
2023/08/11 08:47:32;;;;;;;4.30;1.30;;;18.80;99.90;;;;;;4205656;28;20295;-74
2023/08/11 08:49:36;;;;;;;3.33;1.43;;;18.80;99.90;;;;;;4205231;28;20227;-74
2023/08/11 08:51:37;;;;;;;3.80;1.50;;;18.80;99.90;;;;;;4203246;28;20501;-74
2023/08/11 08:53:41;;;;;;;3.13;1.27;;;18.90;99.90;;;;;;4199575;28;20330;-74
2023/08/11 08:55:43;;;;;;;2.73;1.23;;;19.00;99.90;;;;;;4206999;28;20674;-74
2023/08/11 08:57:46;;;;;;;3.27;1.60;;;19.00;99.90;;;;;;4202136;28;20324;-74
2023/08/11 08:59:48;;;;;;;6.30;1.53;;;19.10;99.90;;;;;;4206332;28;20754;-74
2023/08/11 09:01:52;;;;;;;4.50;1.37;;;19.20;99.90;;;;;;4201543;28;20247;-74
2023/08/11 09:03:54;;;;;;;4.33;1.23;;;19.30;99.90;;;;;;4201190;28;20221;-74
2023/08/11 09:05:57;;;;;;;2.50;1.50;;;19.30;99.90;;;;;;4204553;28;20236;-74
2023/08/11 09:07:58;;;;;;;1.20;0.90;;;19.50;99.90;;;;;;4202077;28;20422;-74
2023/08/11 09:10:00;;;;;;;2.20;1.20;;;19.60;99.90;;;;;;4203567;28;20300;-74
2023/08/11 09:12:03;;;;;;;5.50;1.00;;;19.60;99.90;;;;;;4204016;28;20320;-74
2023/08/11 09:14:05;;;;;;;1.73;1.17;;;19.70;99.90;;;;;;4203469;28;20292;-74
2023/08/11 09:16:07;;;;;;;1.67;0.90;;;19.70;99.90;;;;;;4201986;28;20249;-74
2023/08/11 09:18:16;;;;;;;2.60;0.90;;;19.90;99.90;;;;;;4203561;28;20667;-74
2023/08/11 09:20:19;;;;;;;2.97;1.30;;;19.90;99.90;;;;;;4202818;28;20244;-75
2023/08/11 09:22:25;;;;;;;2.20;1.03;;;19.90;99.90;;;;;;4203528;28;21111;-77
2023/08/11 09:24:30;;;;;;;5.53;1.20;;;20.10;99.90;;;;;;4205310;28;20249;-74
2023/08/11 09:26:31;;;;;;;3.30;1.20;;;20.20;99.90;;;;;;4202194;28;20732;-74
2023/08/11 09:28:33;;;;;;;2.13;1.03;;;20.20;99.90;;;;;;4202154;28;20225;-74
2023/08/11 09:30:35;;;;;;;2.20;1.10;;;20.30;99.90;;;;;;4201728;28;20212;-75
2023/08/11 09:32:38;;;;;;;2.67;1.50;;;20.40;99.90;;;;;;4203567;28;20799;-75
2023/08/11 09:34:43;;;;;;;4.03;1.20;;;20.40;99.90;;;;;;4200778;28;20207;-77
2023/08/11 09:36:47;;;;;;;1.10;0.90;;;20.50;99.90;;;;;;4201213;28;20230;-75
2023/08/11 09:38:50;;;;;;;4.03;1.00;;;20.50;99.90;;;;;;4203912;28;20332;-75
2023/08/11 09:40:52;;;;;;;2.50;1.20;;;20.60;99.90;;;;;;4202797;28;21219;-74
2023/08/11 09:42:57;;;;;;;2.23;1.20;;;20.70;99.90;;;;;;4201314;28;20742;-75
2023/08/11 09:45:01;;;;;;;3.43;0.90;;;20.70;99.90;;;;;;4199673;28;20265;-76
2023/08/11 09:47:03;;;;;;;3.67;0.97;;;20.80;99.90;;;;;;4204669;28;20646;-77
2023/08/11 09:49:07;;;;;;;2.03;1.00;;;20.80;99.90;;;;;;4202264;28;20254;-76
2023/08/11 09:51:11;;;;;;;1.50;1.17;;;20.90;99.90;;;;;;4204177;28;20775;-74
2023/08/11 09:53:14;;;;;;;2.00;1.20;;;20.90;99.90;;;;;;4200974;28;20287;-74
2023/08/11 09:55:18;;;;;;;1.60;0.97;;;21.00;99.90;;;;;;4203473;28;20245;-73
2023/08/11 09:57:22;;;;;;;2.40;1.10;;;21.00;99.90;;;;;;4201983;28;20211;-74
2023/08/11 09:59:26;;;;;;;2.97;1.20;;;21.10;99.90;;;;;;4202713;28;20221;-74
2023/08/11 10:01:30;;;;;;;1.30;1.00;;;21.20;99.90;;;;;;4200932;28;20332;-75
2023/08/11 10:03:37;;;;;;;2.13;1.00;;;21.20;99.90;;;;;;4203308;28;20662;-75
2023/08/11 10:05:43;;;;;;;2.33;1.10;;;21.40;99.90;;;;;;4203422;28;20262;-76
2023/08/11 10:07:49;;;;;;;2.17;1.00;;;21.50;99.90;;;;;;4208030;28;20234;-75
2023/08/11 10:09:54;;;;;;;3.93;1.20;;;21.60;99.90;;;;;;4203419;28;20266;-76
2023/08/11 10:11:59;;;;;;;1.47;1.13;;;21.70;99.90;;;;;;4206371;28;20229;-75
2023/08/11 10:14:03;;;;;;;2.23;1.10;;;21.80;99.90;;;;;;4207013;28;20210;-76
2023/08/11 10:16:07;;;;;;;3.50;1.00;;;21.90;99.90;;;;;;4204317;28;20779;-76
2023/08/11 10:18:10;;;;;;;2.90;1.20;;;22.00;99.90;;;;;;4205826;28;20230;-76
2023/08/11 10:20:12;;;;;;;2.43;1.30;;;22.00;99.90;;;;;;4205706;28;20212;-77
2023/08/11 10:22:15;;;;;;;1.87;1.10;;;22.10;99.90;;;;;;4204996;28;20488;-74
2023/08/11 10:24:21;;;;;;;3.37;1.10;;;22.20;99.90;;;;;;4205994;28;20298;-76
2023/08/11 10:26:24;;;;;;;3.53;1.00;;;22.30;99.90;;;;;;4205778;28;20239;-77
2023/08/11 10:28:26;;;;;;;2.83;1.07;;;22.40;99.90;;;;;;4205910;28;20231;-75
2023/08/11 10:30:29;;;;;;;3.90;1.20;;;22.50;99.90;;;;;;4201598;28;20215;-75
2023/08/11 10:32:33;;;;;;;4.30;1.10;;;22.50;99.90;;;;;;4206587;28;20581;-75
2023/08/11 10:34:35;;;;;;;4.67;1.77;;;22.60;99.90;;;;;;4206119;28;20741;-75
2023/08/11 10:36:38;;;;;;;1.83;1.07;;;22.60;99.90;;;;;;4206982;28;20650;-74